createdAt,value
2023-01-21T00:00:16.111Z,20.96
2023-01-21T00:05:17.661Z,21.09
2023-01-21T00:10:19.060Z,21.05
2023-01-21T00:15:20.432Z,21.08
2023-01-21T00:20:21.876Z,20.75
2023-01-21T00:25:23.293Z,20.90
2023-01-21T00:30:24.682Z,21.09
2023-01-21T00:35:26.066Z,20.90
2023-01-21T00:40:27.455Z,20.78
2023-01-21T00:45:28.840Z,20.91
2023-01-21T00:50:30.252Z,20.96
2023-01-21T00:55:31.651Z,20.83
2023-01-21T01:00:33.094Z,21.08
2023-01-21T01:05:34.681Z,21.00
2023-01-21T01:10:37.274Z,21.08
2023-01-21T01:15:38.669Z,21.18
2023-01-21T01:20:43.557Z,21.03
2023-01-21T01:25:44.961Z,21.15
2023-01-21T01:30:46.453Z,21.06
2023-01-21T01:35:48.153Z,21.08
2023-01-21T01:40:50.504Z,20.92
2023-01-21T01:45:52.196Z,21.15
2023-01-21T01:50:53.603Z,21.27
2023-01-21T01:55:55.032Z,21.18
2023-01-21T02:00:56.985Z,20.94
2023-01-21T02:05:58.408Z,21.06
2023-01-21T02:11:00.868Z,21.09
2023-01-21T02:16:25.134Z,21.09
2023-01-21T02:21:29.359Z,20.85
2023-01-21T02:26:44.293Z,21.00
2023-01-21T02:31:59.759Z,21.22
2023-01-21T02:37:22.893Z,21.23
2023-01-21T02:42:46.944Z,21.03
2023-01-21T02:48:06.320Z,21.07
2023-01-21T02:53:17.184Z,21.17
2023-01-21T02:58:20.299Z,21.25
2023-01-21T03:03:22.101Z,21.20
2023-01-21T03:08:30.262Z,21.25
2023-01-21T03:14:00.929Z,21.14
2023-01-21T03:19:04.071Z,21.26
2023-01-21T03:24:05.719Z,21.02
2023-01-21T03:29:09.619Z,20.83
2023-01-21T03:34:11.566Z,20.98
2023-01-21T03:39:16.086Z,20.89
2023-01-21T03:44:17.455Z,20.74
2023-01-21T03:49:40.460Z,20.96
2023-01-21T03:54:41.869Z,21.11
2023-01-21T03:59:43.854Z,21.00
2023-01-21T04:04:45.474Z,20.87
2023-01-21T04:09:46.866Z,21.17
2023-01-21T04:14:48.253Z,21.05
2023-01-21T04:19:49.639Z,21.38
2023-01-21T04:24:51.502Z,21.12
2023-01-21T04:29:52.883Z,21.31
2023-01-21T04:34:54.295Z,20.98
2023-01-21T04:39:55.696Z,21.29
2023-01-21T04:44:57.069Z,21.36
2023-01-21T04:49:58.445Z,21.20
2023-01-21T04:54:59.843Z,20.96
2023-01-21T05:00:01.407Z,21.31
2023-01-21T05:05:02.838Z,21.11
2023-01-21T05:10:04.548Z,21.15
2023-01-21T05:15:07.198Z,21.03
2023-01-21T05:20:09.096Z,21.00
2023-01-21T05:25:10.489Z,21.01
2023-01-21T05:30:12.325Z,21.05
2023-01-21T05:35:13.889Z,20.97
2023-01-21T05:40:16.640Z,20.97
2023-01-21T05:45:18.237Z,20.91
2023-01-21T05:50:19.680Z,20.96
2023-01-21T05:55:21.084Z,20.63
2023-01-21T06:00:22.574Z,20.82
2023-01-21T06:05:24.033Z,21.05
2023-01-21T06:10:25.429Z,20.93
2023-01-21T06:15:27.945Z,21.04
2023-01-21T06:20:30.400Z,20.88
2023-01-21T06:25:32.021Z,21.02
2023-01-21T06:30:33.486Z,20.97
2023-01-21T06:35:35.801Z,20.98
2023-01-21T06:40:37.283Z,20.89
2023-01-21T06:45:38.682Z,21.02
2023-01-21T06:50:40.101Z,21.06
2023-01-21T06:55:41.482Z,20.88
2023-01-21T07:00:42.870Z,21.01
2023-01-21T07:05:44.290Z,20.71
2023-01-21T07:10:47.695Z,20.75
2023-01-21T07:15:49.236Z,20.73
2023-01-21T07:20:50.624Z,20.45
2023-01-21T07:25:52.013Z,20.35
2023-01-21T07:30:53.619Z,20.53
2023-01-21T07:35:55.228Z,20.76
2023-01-21T07:40:56.848Z,20.77
2023-01-21T07:46:00.117Z,20.43
2023-01-21T07:51:01.849Z,20.67
2023-01-21T07:56:06.852Z,20.66
2023-01-21T08:01:08.345Z,20.65
2023-01-21T08:06:09.754Z,20.49
2023-01-21T08:11:11.168Z,20.61
2023-01-21T08:16:13.577Z,20.75
2023-01-21T08:21:15.049Z,20.36
2023-01-21T08:26:16.460Z,20.61
2023-01-21T08:31:17.919Z,20.63
2023-01-21T08:36:19.330Z,20.87
2023-01-21T08:41:20.813Z,20.88
2023-01-21T08:46:22.198Z,20.80
2023-01-21T08:51:23.625Z,20.74
2023-01-21T08:56:25.087Z,20.87
2023-01-21T09:01:26.517Z,21.02
2023-01-21T09:06:29.951Z,20.86
2023-01-21T09:11:31.421Z,20.93
2023-01-21T09:16:32.883Z,21.01
2023-01-21T09:21:37.798Z,21.09
2023-01-21T09:26:43.876Z,21.12
2023-01-21T09:31:45.278Z,21.15
2023-01-21T09:36:46.695Z,21.10
2023-01-21T09:41:58.112Z,21.19
2023-01-21T09:47:17.795Z,21.18
2023-01-21T09:52:24.609Z,21.06
2023-01-21T09:57:38.051Z,21.05
2023-01-21T10:02:48.881Z,21.11
2023-01-21T10:08:11.407Z,21.35
2023-01-21T10:13:34.349Z,21.14
2023-01-21T10:18:36.846Z,21.16
2023-01-21T10:23:43.476Z,21.19
2023-01-21T10:28:48.342Z,21.41
2023-01-21T10:33:49.719Z,21.29
2023-01-21T10:39:14.322Z,21.19
2023-01-21T10:44:19.101Z,21.16
2023-01-21T10:49:31.161Z,20.98
2023-01-21T10:54:50.662Z,21.48
2023-01-21T10:59:52.035Z,20.98
2023-01-21T11:04:53.439Z,21.06
2023-01-21T11:09:54.885Z,21.24
2023-01-21T11:15:02.030Z,21.32
2023-01-21T11:20:06.307Z,21.13
2023-01-21T11:25:08.189Z,21.04
2023-01-21T11:30:44.496Z,21.16
2023-01-21T11:35:49.985Z,21.41
2023-01-21T11:41:17.839Z,21.19
2023-01-21T11:46:35.140Z,21.40
2023-01-21T11:51:40.209Z,21.52
2023-01-21T11:56:45.268Z,21.56
2023-01-21T12:01:55.660Z,21.56
2023-01-21T12:06:58.489Z,21.70
2023-01-21T12:12:15.521Z,21.63
2023-01-21T12:17:40.071Z,21.56
2023-01-21T12:22:53.148Z,21.82
2023-01-21T12:28:06.379Z,21.51
2023-01-21T12:33:35.464Z,21.53
2023-01-21T12:38:40.791Z,21.85
2023-01-21T12:43:50.542Z,21.73
2023-01-21T12:48:52.422Z,21.43
2023-01-21T12:54:06.269Z,21.74
2023-01-21T12:59:07.498Z,21.77
2023-01-21T13:04:29.069Z,21.85
2023-01-21T13:09:35.869Z,21.89
2023-01-21T13:14:42.866Z,21.99
2023-01-21T13:19:44.270Z,21.85
2023-01-21T13:25:01.706Z,22.09
2023-01-21T13:30:15.328Z,22.11
2023-01-21T13:35:28.905Z,22.21
2023-01-21T13:41:11.741Z,22.22
2023-01-21T13:46:28.575Z,22.47
2023-01-21T13:52:07.958Z,22.41
2023-01-21T13:57:16.293Z,22.36
2023-01-21T14:02:23.301Z,22.58
2023-01-21T14:07:28.269Z,22.95
2023-01-21T14:12:38.271Z,23.00
2023-01-21T14:18:15.179Z,22.96
2023-01-21T14:23:32.103Z,23.02
2023-01-21T14:28:58.261Z,23.13
2023-01-21T14:34:05.908Z,23.09
2023-01-21T14:39:19.315Z,23.16
2023-01-21T14:44:39.371Z,23.28
2023-01-21T14:49:42.581Z,23.46
2023-01-21T14:54:44.522Z,23.26
2023-01-21T14:59:46.161Z,23.21
2023-01-21T15:04:53.040Z,23.34
2023-01-21T15:09:55.227Z,23.21
2023-01-21T15:15:01.255Z,23.69
2023-01-21T15:20:39.482Z,23.32
2023-01-21T15:26:11.101Z,23.36
2023-01-21T15:31:21.615Z,23.63
2023-01-21T15:36:24.712Z,23.59
2023-01-21T15:41:39.897Z,23.47
2023-01-21T15:46:51.819Z,23.65
2023-01-21T15:52:05.272Z,23.88
2023-01-21T15:57:24.879Z,23.60
2023-01-21T16:02:27.958Z,23.69
2023-01-21T16:07:52.061Z,23.58
2023-01-21T16:13:10.592Z,23.50
2023-01-21T16:18:32.070Z,23.83
2023-01-21T16:23:35.782Z,23.67
2023-01-21T16:28:42.581Z,23.76
2023-01-21T16:33:44.104Z,23.68
2023-01-21T16:38:45.898Z,23.84
2023-01-21T16:43:47.189Z,23.66
2023-01-21T16:48:52.361Z,23.71
2023-01-21T16:53:53.829Z,23.66
2023-01-21T16:58:58.041Z,24.00
2023-01-21T17:04:01.149Z,23.73
2023-01-21T17:09:04.933Z,23.76
2023-01-21T17:14:09.416Z,23.87
2023-01-21T17:19:22.976Z,23.67
2023-01-21T17:24:28.646Z,23.84
2023-01-21T17:29:31.425Z,23.55
2023-01-21T17:34:34.609Z,23.82
2023-01-21T17:39:48.210Z,23.88
2023-01-21T17:44:54.890Z,23.69
2023-01-21T17:50:12.497Z,23.94
2023-01-21T17:55:26.618Z,23.67
2023-01-21T18:00:37.837Z,23.98
2023-01-21T18:05:39.366Z,24.05
2023-01-21T18:10:40.776Z,23.86
2023-01-21T18:15:43.913Z,23.76
2023-01-21T18:20:45.819Z,23.83
2023-01-21T18:25:48.779Z,23.94
2023-01-21T18:30:50.822Z,23.93
2023-01-21T18:35:52.294Z,23.71
2023-01-21T18:40:54.720Z,23.84
2023-01-21T18:45:56.168Z,24.04
2023-01-21T18:50:57.624Z,23.88
2023-01-21T18:55:59.094Z,23.89
2023-01-21T19:01:08.040Z,23.70
2023-01-21T19:06:16.434Z,24.01
2023-01-21T19:11:17.945Z,23.87
2023-01-21T19:16:19.849Z,23.66
2023-01-21T19:21:21.321Z,23.75
2023-01-21T19:26:22.777Z,23.88
2023-01-21T19:31:24.304Z,23.88
2023-01-21T19:36:25.751Z,24.17
2023-01-21T19:41:27.171Z,24.01
2023-01-21T19:46:28.749Z,23.79
2023-01-21T19:51:32.091Z,23.96
2023-01-21T19:56:33.708Z,23.96
2023-01-21T20:01:35.169Z,23.74
2023-01-21T20:06:39.126Z,23.84
2023-01-21T20:11:40.770Z,23.97
2023-01-21T20:16:52.119Z,24.02
2023-01-21T20:22:02.154Z,23.67
2023-01-21T20:27:05.238Z,23.79
2023-01-21T20:32:09.941Z,24.04
2023-01-21T20:37:13.592Z,24.05
2023-01-21T20:42:14.973Z,23.97
2023-01-21T20:47:23.059Z,23.67
2023-01-21T20:52:33.961Z,23.89
2023-01-21T20:57:35.330Z,24.03
2023-01-21T21:02:36.774Z,23.99
2023-01-21T21:07:38.178Z,23.89
2023-01-21T21:12:39.562Z,23.83
2023-01-21T21:17:41.234Z,24.11
2023-01-21T21:22:42.607Z,24.11
2023-01-21T21:27:44.337Z,24.06
2023-01-21T21:32:45.752Z,24.04
2023-01-21T21:37:47.166Z,23.84
2023-01-21T21:43:07.018Z,24.33
2023-01-21T21:48:35.603Z,23.95
2023-01-21T21:53:37.499Z,23.92
2023-01-21T21:58:38.962Z,24.10
2023-01-21T22:03:40.427Z,23.93
2023-01-21T22:08:42.154Z,24.13
2023-01-21T22:13:44.341Z,24.11
2023-01-21T22:18:45.833Z,24.02
2023-01-21T22:23:47.538Z,23.99
2023-01-21T22:28:49.039Z,24.17
2023-01-21T22:33:50.533Z,24.17
2023-01-21T22:38:52.669Z,23.99
2023-01-21T22:43:54.142Z,23.93
2023-01-21T22:48:55.552Z,24.01
2023-01-21T22:53:56.974Z,23.87
2023-01-21T22:58:58.390Z,23.81
2023-01-21T23:03:59.810Z,24.01
2023-01-21T23:09:01.210Z,24.21
2023-01-21T23:14:02.617Z,24.00
2023-01-21T23:19:04.007Z,23.74
2023-01-21T23:24:06.301Z,23.83
2023-01-21T23:29:07.726Z,23.98
2023-01-21T23:34:11.492Z,24.03
2023-01-21T23:39:12.857Z,24.13
2023-01-21T23:44:14.268Z,23.76
2023-01-21T23:49:18.566Z,23.83
2023-01-21T23:54:20.062Z,24.08
2023-01-21T23:59:21.489Z,23.93
